Terminal Aerodrome Forecast
Issued by NWS

Home | Current Version | Previous Version | Text Only | Print | Product List | Glossary On
Versions: 1 2 3 4 5 6 7 8 9 10 11 12 13 14 15 16 17 18 19 20 21 22 23 24 25 26 27 28
000
FTUS43 KDLH 031100 RRA
TAFBRD
TAF
KBRD 031141Z 0312/0412 18012KT 3/4SM -SN BR OVC008
      TEMPO 0312/0314 2SM -SN SCT008 OVC015
     FM031800 32012G22KT 5SM -SN BLSN SCT015 OVC025
      TEMPO 0318/0320 1 1/2SM -SN BKN015
     FM032000 32017G26KT 6SM BLSN SCT025
     FM040600 29012KT P6SM SKC=

USA.gov is the U.S. government's official web portal to all federal, state and local government web resources and services.